Airfield :
LOGIN :

Register | Disclaimer

   EN    FR    IT 

 










Legend :    VFR   Marginal VFR   IFR   Intensive IFR   Very Intensive IFR
Visi :
Ceiling :
>= 8 km
>= 3000ft
5 to 8 km
1000 to 3000 ft
1500m to 5 km
500 to 1000 ft
800 to 1500m
200 to 500 ft
< 800m
< 200 ft
Symbols :   Thunderstorms  Fog  Heavy snow  Heavy precipitations  Wind > 20 kt
SIGMETs :     Misc.  Thunderstorms  Icing  Turbulence  Mountain Waves  Volcanic Ashes






- Airport Elevation : 784 ft
- IATA code : TZL


LQTZ - Tuzla

CURRENT METAR :
  • 311830Z 09005KT CAVOK 21/18 Q1010

EXPIRED METARs :
  • 311800Z 11004KT 9999 FEW035 23/18 Q1010
  • 311730Z 10006KT 9999 FEW035 24/19 Q1010
  • 311700Z 11006KT 080V150 9999 FEW035 24/20 Q1010
  • 311630Z 08007KT 030V120 9999 FEW035TCU 26/21 Q1010
  • 311600Z 11009KT 070V150 9999 FEW035TCU SCT040 23/20 Q1009

TAF TAF LQTZ
Valid from the 31 at 18:00 until the 01 at 18:00 UTC


311700Z 3118/0118 09005KT CAVOK TX37/0114Z TN17/0103Z
TEMPO 0109/0118 25010KT
PROB30
TEMPO 0112/0118 25015G25KT 5000 TSRA FEW040CB SCT050



MET'MAP, your aeronautical weather chart ! - Copyright ORBIFLY December 2007 - Disclaimer

ORBIFLY MET'MAP TEAM :

Programming & Development : Alexandra Zaïnal
Concept & original design : Baudouin d'Aumeries
Assistance for programming : Marc-Olivier Méhu
Technical & hardware support : Manuel Goepfert

Contact : metmap@orbifly.com




SOURCES & CREDITS :

   NOAA